Time;durP1;ratioP1;P1;durP2;ratioP2;P2;SDS_P1;SDS_P2;PMS_P1;PMS_P2;Temp;Humidity;BMP_temperature;BMP_pressure;BME280_temperature;BME280_humidity;BME280_pressure;Samples;Min_cycle;Max_cycle;Signal;HPM_P1;HPM_P2
2023/12/16 00:02:11;;;;;;;12.70;3.22;;;;;;;;;;5010194;28;20061;-71
2023/12/16 00:04:40;;;;;;;13.70;4.10;;;;;;;;;;5010347;28;20039;-71
2023/12/16 00:07:11;;;;;;;17.60;3.65;;;;;;;;;;5011712;28;20042;-71
2023/12/16 00:09:37;;;;;;;15.95;3.95;;;;;;;;;;5011668;28;20038;-71
2023/12/16 00:12:10;;;;;;;12.40;3.30;;;;;;;;;;5009951;28;20069;-71
2023/12/16 00:14:38;;;;;;;18.92;3.92;;;;;;;;;;5010389;28;20049;-71
2023/12/16 00:17:05;;;;;;;13.75;4.15;;;;;;;;;;5009735;28;20076;-71
2023/12/16 00:19:31;;;;;;;20.98;4.55;;;;;;;;;;5009319;28;20043;-71
2023/12/16 00:21:57;;;;;;;7.63;3.05;;;;;;;;;;5008227;28;20038;-71
2023/12/16 00:24:23;;;;;;;15.70;3.78;;;;;;;;;;5009336;28;20057;-71
2023/12/16 00:26:51;;;;;;;10.48;3.58;;;;;;;;;;5010687;28;20291;-71
2023/12/16 00:29:17;;;;;;;12.32;3.70;;;;;;;;;;5009436;28;20038;-71
2023/12/16 00:31:44;;;;;;;17.65;4.10;;;;;;;;;;5010757;28;20038;-71
2023/12/16 00:34:10;;;;;;;16.90;3.90;;;;;;;;;;5010815;28;20034;-71
2023/12/16 00:36:36;;;;;;;12.90;3.30;;;;;;;;;;5010311;28;20043;-71
2023/12/16 00:39:07;;;;;;;14.40;3.58;;;;;;;;;;5009179;28;20046;-71
2023/12/16 00:41:34;;;;;;;13.35;3.30;;;;;;;;;;5010511;28;20058;-71
2023/12/16 00:44:09;;;;;;;11.35;2.67;;;;;;;;;;5009783;28;20042;-71
2023/12/16 00:46:41;;;;;;;11.90;2.88;;;;;;;;;;5008310;28;20042;-71
2023/12/16 00:49:08;;;;;;;8.63;2.70;;;;;;;;;;4992517;28;20039;-71
2023/12/16 00:51:34;;;;;;;11.38;2.92;;;;;;;;;;5008029;28;20098;-71
2023/12/16 00:54:07;;;;;;;10.50;2.67;;;;;;;;;;5010221;28;20038;-71
2023/12/16 00:56:33;;;;;;;12.55;3.58;;;;;;;;;;4993052;28;20045;-71
2023/12/16 00:58:59;;;;;;;16.15;3.90;;;;;;;;;;4991295;28;20042;-71
2023/12/16 01:01:30;;;;;;;11.02;3.60;;;;;;;;;;4992293;28;20105;-71
2023/12/16 01:04:01;;;;;;;13.55;4.00;;;;;;;;;;5008379;28;20042;-71
2023/12/16 01:06:28;;;;;;;10.88;3.10;;;;;;;;;;5007682;28;20049;-71
2023/12/16 01:08:54;;;;;;;14.40;3.85;;;;;;;;;;5008035;28;20047;-71
2023/12/16 01:11:20;;;;;;;11.50;3.63;;;;;;;;;;5009999;28;20440;-71
2023/12/16 01:13:46;;;;;;;15.57;4.03;;;;;;;;;;5007827;28;20045;-71
2023/12/16 01:16:14;;;;;;;16.27;4.53;;;;;;;;;;5009452;28;20045;-71
2023/12/16 01:18:44;;;;;;;20.38;4.28;;;;;;;;;;5016650;28;20137;-71
2023/12/16 01:21:12;;;;;;;12.35;4.28;;;;;;;;;;5029929;28;20045;-71
2023/12/16 01:23:41;;;;;;;18.08;3.33;;;;;;;;;;5028571;28;20099;-71
2023/12/16 01:26:09;;;;;;;20.83;4.80;;;;;;;;;;5001588;28;20033;-71
2023/12/16 01:28:35;;;;;;;10.38;3.17;;;;;;;;;;5008392;28;20043;-71
2023/12/16 01:31:02;;;;;;;12.57;3.45;;;;;;;;;;5007900;28;20050;-71
2023/12/16 01:33:33;;;;;;;14.38;3.95;;;;;;;;;;5011507;28;20051;-71
2023/12/16 01:36:02;;;;;;;9.63;3.00;;;;;;;;;;5011662;28;20034;-71
2023/12/16 01:38:31;;;;;;;13.60;3.08;;;;;;;;;;5012778;28;20133;-71
2023/12/16 01:40:57;;;;;;;11.85;3.17;;;;;;;;;;5011829;28;20050;-71
2023/12/16 01:43:25;;;;;;;10.75;3.03;;;;;;;;;;5012724;28;20073;-71
2023/12/16 01:45:58;;;;;;;18.85;3.63;;;;;;;;;;5010950;28;20339;-71
2023/12/16 01:48:24;;;;;;;14.38;2.95;;;;;;;;;;5012767;28;20056;-71
2023/12/16 01:50:50;;;;;;;14.27;3.10;;;;;;;;;;5011374;28;20044;-71
2023/12/16 01:53:17;;;;;;;11.45;2.85;;;;;;;;;;5010081;28;20130;-71
2023/12/16 01:55:44;;;;;;;11.40;3.00;;;;;;;;;;5011883;28;20038;-71
2023/12/16 01:58:11;;;;;;;20.58;3.70;;;;;;;;;;5010380;28;20053;-71
2023/12/16 02:00:38;;;;;;;10.18;3.33;;;;;;;;;;4993350;28;20042;-71
2023/12/16 02:03:06;;;;;;;8.07;2.67;;;;;;;;;;5010283;28;20042;-71
2023/12/16 02:05:33;;;;;;;13.35;3.08;;;;;;;;;;5010060;28;20110;-71
2023/12/16 02:07:59;;;;;;;9.05;2.63;;;;;;;;;;5010708;28;20085;-71
2023/12/16 02:10:27;;;;;;;7.25;2.50;;;;;;;;;;5009679;28;20097;-71
2023/12/16 02:12:55;;;;;;;11.85;2.72;;;;;;;;;;5010447;28;20039;-71
2023/12/16 02:15:21;;;;;;;13.20;3.40;;;;;;;;;;5010832;28;20269;-71
2023/12/16 02:17:48;;;;;;;10.13;2.90;;;;;;;;;;4993492;28;20038;-71
2023/12/16 02:20:15;;;;;;;16.67;3.08;;;;;;;;;;5009558;28;20076;-71
2023/12/16 02:22:47;;;;;;;10.13;2.63;;;;;;;;;;5010078;28;20046;-71
2023/12/16 02:25:14;;;;;;;10.80;2.53;;;;;;;;;;5011092;28;20053;-71
2023/12/16 02:27:45;;;;;;;12.90;2.53;;;;;;;;;;5030303;28;20122;-71
2023/12/16 02:30:13;;;;;;;10.43;2.75;;;;;;;;;;5030193;28;20049;-71
2023/12/16 02:32:41;;;;;;;9.88;2.67;;;;;;;;;;5028511;28;20044;-71
2023/12/16 02:35:13;;;;;;;11.38;2.72;;;;;;;;;;5028231;28;20041;-71
2023/12/16 02:37:44;;;;;;;;;;;;;;;;;;5028875;28;20431;-71
2023/12/16 02:40:11;;;;;;;15.68;3.03;;;;;;;;;;5030312;28;19921;-71
2023/12/16 02:42:40;;;;;;;18.15;3.42;;;;;;;;;;5028187;28;20072;-71
2023/12/16 02:45:09;;;;;;;11.68;2.67;;;;;;;;;;5029223;28;20049;-71
2023/12/16 02:47:42;;;;;;;15.70;3.17;;;;;;;;;;5030435;28;20046;-71
2023/12/16 02:50:09;;;;;;;13.07;2.80;;;;;;;;;;5029964;28;20057;-71
2023/12/16 02:52:35;;;;;;;11.52;3.15;;;;;;;;;;5012830;28;20058;-71
2023/12/16 02:55:02;;;;;;;14.60;3.00;;;;;;;;;;5030721;28;20129;-71
2023/12/16 02:57:29;;;;;;;13.07;3.05;;;;;;;;;;5012343;28;20137;-71
2023/12/16 02:59:55;;;;;;;13.68;3.55;;;;;;;;;;5027913;28;20080;-71
2023/12/16 03:02:26;;;;;;;15.50;3.03;;;;;;;;;;5027955;28;20049;-71
2023/12/16 03:04:55;;;;;;;16.48;3.67;;;;;;;;;;5028338;28;20044;-71
2023/12/16 03:07:23;;;;;;;12.93;3.22;;;;;;;;;;5028116;28;20042;-71
2023/12/16 03:09:49;;;;;;;17.75;3.47;;;;;;;;;;5028735;28;20077;-71
2023/12/16 03:12:15;;;;;;;13.57;2.85;;;;;;;;;;5029436;28;20045;-71
2023/12/16 03:15:00;;;;;;;14.88;2.88;;;;;;;;;;5030219;28;20102;-71
2023/12/16 03:17:27;;;;;;;14.05;3.20;;;;;;;;;;5027655;28;20038;-71
2023/12/16 03:19:53;;;;;;;12.07;3.20;;;;;;;;;;5028298;28;20042;-71
2023/12/16 03:22:19;;;;;;;19.02;3.65;;;;;;;;;;5012050;28;20052;-71
2023/12/16 03:24:46;;;;;;;16.13;3.25;;;;;;;;;;5026735;28;20052;-71
2023/12/16 03:27:12;;;;;;;12.70;3.05;;;;;;;;;;5009756;28;20042;-71
2023/12/16 03:29:38;;;;;;;7.95;2.75;;;;;;;;;;5028649;28;20430;-71
2023/12/16 03:32:04;;;;;;;11.95;3.05;;;;;;;;;;5029251;28;20104;-71
2023/12/16 03:34:32;;;;;;;11.98;3.03;;;;;;;;;;5027488;28;20041;-71
2023/12/16 03:36:59;;;;;;;15.52;3.53;;;;;;;;;;5028096;28;20052;-71
2023/12/16 03:39:25;;;;;;;16.20;3.38;;;;;;;;;;5027058;28;20252;-71
2023/12/16 03:41:56;;;;;;;14.75;3.25;;;;;;;;;;5026276;28;20046;-71
2023/12/16 03:44:22;;;;;;;19.70;3.50;;;;;;;;;;5009654;28;20101;-71
2023/12/16 03:46:48;;;;;;;14.80;3.22;;;;;;;;;;5027785;28;20053;-71
2023/12/16 03:49:16;;;;;;;17.73;3.30;;;;;;;;;;5010304;28;20049;-71
2023/12/16 03:51:42;;;;;;;19.67;3.33;;;;;;;;;;5009086;28;20046;-71
2023/12/16 03:54:09;;;;;;;13.57;3.08;;;;;;;;;;5027231;28;20038;-71
2023/12/16 03:56:38;;;;;;;18.75;3.88;;;;;;;;;;5027534;28;20129;-71
2023/12/16 03:59:05;;;;;;;14.32;3.30;;;;;;;;;;5026207;28;20105;-71
2023/12/16 04:01:33;;;;;;;12.20;3.10;;;;;;;;;;5028111;28;20049;-71
2023/12/16 04:03:59;;;;;;;18.38;3.33;;;;;;;;;;5010646;28;20049;-71
2023/12/16 04:06:27;;;;;;;16.83;3.70;;;;;;;;;;5026270;28;20092;-71
2023/12/16 04:08:53;;;;;;;15.93;3.13;;;;;;;;;;5026352;28;20042;-71
2023/12/16 04:11:21;;;;;;;21.58;3.50;;;;;;;;;;5010479;28;20041;-71
2023/12/16 04:13:48;;;;;;;16.63;3.40;;;;;;;;;;5008890;28;20480;-71
2023/12/16 04:16:20;;;;;;;15.02;2.95;;;;;;;;;;5027907;28;20388;-71
2023/12/16 04:18:49;;;;;;;20.50;3.75;;;;;;;;;;5027047;28;20045;-71
2023/12/16 04:21:18;;;;;;;19.08;4.05;;;;;;;;;;5027348;28;20060;-71
2023/12/16 04:23:44;;;;;;;14.95;3.55;;;;;;;;;;5026596;28;20116;-71
2023/12/16 04:26:10;;;;;;;11.43;3.22;;;;;;;;;;5017841;28;20050;-72
2023/12/16 04:28:37;;;;;;;13.65;2.85;;;;;;;;;;5007371;28;20050;-72
2023/12/16 04:31:04;;;;;;;15.07;3.42;;;;;;;;;;5005803;28;20085;-72
2023/12/16 04:33:31;;;;;;;17.08;3.30;;;;;;;;;;5007564;28;20052;-72
2023/12/16 04:35:59;;;;;;;20.10;3.50;;;;;;;;;;5011485;28;20093;-72
2023/12/16 04:38:29;;;;;;;14.65;3.25;;;;;;;;;;4991534;28;20061;-71
2023/12/16 04:40:57;;;;;;;15.02;3.15;;;;;;;;;;5008252;28;20042;-71
2023/12/16 04:43:26;;;;;;;15.43;3.08;;;;;;;;;;5008538;28;20056;-71
2023/12/16 04:45:55;;;;;;;12.05;2.80;;;;;;;;;;5009499;28;20048;-71
2023/12/16 04:48:27;;;;;;;13.68;3.17;;;;;;;;;;4992785;28;20050;-71
2023/12/16 04:50:53;;;;;;;13.23;3.15;;;;;;;;;;5009328;28;20070;-71
2023/12/16 04:53:22;;;;;;;21.88;3.80;;;;;;;;;;5008818;28;20043;-71
2023/12/16 04:55:52;;;;;;;17.13;3.45;;;;;;;;;;5009796;28;20038;-71
2023/12/16 04:58:18;;;;;;;10.00;3.05;;;;;;;;;;4994499;28;20089;-71
2023/12/16 05:00:44;;;;;;;17.73;3.60;;;;;;;;;;5008753;28;20055;-71
2023/12/16 05:03:10;;;;;;;15.57;4.10;;;;;;;;;;5008169;28;20145;-71
2023/12/16 05:05:38;;;;;;;14.95;3.25;;;;;;;;;;5007912;28;20065;-71
2023/12/16 05:08:04;;;;;;;15.10;3.38;;;;;;;;;;5009617;28;20102;-71
2023/12/16 05:10:35;;;;;;;22.98;4.05;;;;;;;;;;5012259;28;20046;-71
2023/12/16 05:13:02;;;;;;;13.43;3.43;;;;;;;;;;5013901;28;20090;-71
2023/12/16 05:15:29;;;;;;;12.98;3.55;;;;;;;;;;5012618;28;20062;-71
2023/12/16 05:18:01;;;;;;;19.30;3.70;;;;;;;;;;4995969;28;20105;-71
2023/12/16 05:20:29;;;;;;;;;;;;;;;;;;4997485;28;20117;-71
2023/12/16 05:22:59;;;;;;;16.63;3.55;;;;;;;;;;5013477;28;19964;-71
2023/12/16 05:25:30;;;;;;;13.82;4.00;;;;;;;;;;5012585;28;20053;-71
2023/12/16 05:27:57;;;;;;;20.17;3.67;;;;;;;;;;5011925;28;20049;-71
2023/12/16 05:30:26;;;;;;;20.80;3.83;;;;;;;;;;5013581;28;20069;-71
2023/12/16 05:33:02;;;;;;;22.35;3.45;;;;;;;;;;5013317;28;20106;-71
2023/12/16 05:35:33;;;;;;;21.67;4.13;;;;;;;;;;4996077;28;20065;-71
2023/12/16 05:38:04;;;;;;;17.60;4.10;;;;;;;;;;5014553;28;20042;-71
2023/12/16 05:40:30;;;;;;;17.73;4.07;;;;;;;;;;5011984;28;20054;-71
2023/12/16 05:43:02;;;;;;;17.55;3.83;;;;;;;;;;5011869;28;20048;-71
2023/12/16 05:45:29;;;;;;;15.43;4.20;;;;;;;;;;5013216;28;20117;-71
2023/12/16 05:47:58;;;;;;;20.23;4.75;;;;;;;;;;5012653;28;20058;-71
2023/12/16 05:50:25;;;;;;;19.80;5.05;;;;;;;;;;5012794;28;20050;-71
2023/12/16 05:52:51;;;;;;;17.60;4.25;;;;;;;;;;4995618;28;20058;-71
2023/12/16 05:55:17;;;;;;;19.38;5.20;;;;;;;;;;5013318;28;20049;-71
2023/12/16 05:57:45;;;;;;;18.58;4.57;;;;;;;;;;5012210;28;20473;-71
2023/12/16 06:00:23;;;;;;;24.73;6.22;;;;;;;;;;5012396;28;20042;-71
2023/12/16 06:02:55;;;;;;;24.02;4.75;;;;;;;;;;4996250;28;20096;-71
2023/12/16 06:05:24;;;;;;;24.80;5.40;;;;;;;;;;5014071;28;20038;-71
2023/12/16 06:07:54;;;;;;;25.27;5.35;;;;;;;;;;4997260;28;20093;-71
2023/12/16 06:10:24;;;;;;;24.85;5.60;;;;;;;;;;5014004;28;20057;-71
2023/12/16 06:12:50;;;;;;;18.52;5.05;;;;;;;;;;5013787;28;20097;-71
2023/12/16 06:15:16;;;;;;;22.08;5.28;;;;;;;;;;5013522;28;20047;-71
2023/12/16 06:17:46;;;;;;;25.75;5.25;;;;;;;;;;5011953;28;20038;-71
2023/12/16 06:20:15;;;;;;;16.73;4.88;;;;;;;;;;4994373;28;20039;-71
2023/12/16 06:22:45;;;;;;;24.17;5.43;;;;;;;;;;5012562;28;20053;-71
2023/12/16 06:25:18;;;;;;;27.55;6.40;;;;;;;;;;5013738;28;20127;-71
2023/12/16 06:27:55;;;;;;;21.98;5.30;;;;;;;;;;5011962;28;20042;-71
2023/12/16 06:30:25;;;;;;;22.33;5.50;;;;;;;;;;5011980;28;20080;-71
2023/12/16 06:32:53;;;;;;;33.47;5.75;;;;;;;;;;5011127;28;20042;-72
2023/12/16 06:35:19;;;;;;;20.73;5.57;;;;;;;;;;5011179;28;20044;-72
2023/12/16 06:37:46;;;;;;;23.67;5.03;;;;;;;;;;4996120;28;20042;-71
2023/12/16 06:40:12;;;;;;;19.25;5.43;;;;;;;;;;4994985;28;20110;-71
2023/12/16 06:42:51;;;;;;;20.95;5.50;;;;;;;;;;5011813;28;20101;-71
2023/12/16 06:45:19;;;;;;;22.85;5.45;;;;;;;;;;5011498;28;20056;-71
2023/12/16 06:47:46;;;;;;;25.98;6.40;;;;;;;;;;4995678;28;20026;-71
2023/12/16 06:50:12;;;;;;;24.35;5.60;;;;;;;;;;5011678;28;20050;-71
2023/12/16 06:52:39;;;;;;;22.58;5.75;;;;;;;;;;5012521;28;20065;-71
2023/12/16 06:55:08;;;;;;;24.25;5.85;;;;;;;;;;5011527;28;20042;-71
2023/12/16 06:57:34;;;;;;;20.63;6.38;;;;;;;;;;5012432;28;20062;-71
2023/12/16 07:00:00;;;;;;;25.75;5.88;;;;;;;;;;4994126;28;20055;-71
2023/12/16 07:02:27;;;;;;;25.42;5.40;;;;;;;;;;5011451;28;20092;-71
2023/12/16 07:04:58;;;;;;;24.17;6.18;;;;;;;;;;5012904;28;20125;-71
2023/12/16 07:07:26;;;;;;;25.23;6.32;;;;;;;;;;5011185;28;20046;-71
2023/12/16 07:09:52;;;;;;;27.88;6.35;;;;;;;;;;5010771;28;20077;-71
2023/12/16 07:12:23;;;;;;;20.52;6.28;;;;;;;;;;5010908;28;20046;-71
2023/12/16 07:14:49;;;;;;;26.08;6.97;;;;;;;;;;5010812;28;20082;-71
2023/12/16 07:17:17;;;;;;;21.35;6.28;;;;;;;;;;4993351;28;20098;-71
2023/12/16 07:19:51;;;;;;;25.75;6.45;;;;;;;;;;5024856;28;20049;-71
2023/12/16 07:22:18;;;;;;;26.05;5.88;;;;;;;;;;5028410;28;20046;-72
2023/12/16 07:24:45;;;;;;;30.95;6.38;;;;;;;;;;5029138;28;20086;-72
2023/12/16 07:27:11;;;;;;;22.45;6.20;;;;;;;;;;5028942;28;20042;-72
2023/12/16 07:29:37;;;;;;;24.23;6.32;;;;;;;;;;5028880;28;20054;-72
2023/12/16 07:32:04;;;;;;;27.60;6.80;;;;;;;;;;5027177;28;20065;-72
2023/12/16 07:34:33;;;;;;;28.08;7.20;;;;;;;;;;5027533;28;20049;-72
2023/12/16 07:36:59;;;;;;;23.27;6.50;;;;;;;;;;5013666;28;20034;-72
2023/12/16 07:39:31;;;;;;;27.50;6.15;;;;;;;;;;5029362;28;20052;-71
2023/12/16 07:41:57;;;;;;;26.23;7.03;;;;;;;;;;5013770;28;20026;-71
2023/12/16 07:44:28;;;;;;;32.17;7.18;;;;;;;;;;5012963;28;20045;-71
2023/12/16 07:47:00;;;;;;;27.65;6.78;;;;;;;;;;5030388;28;20069;-71
2023/12/16 07:49:28;;;;;;;27.73;7.32;;;;;;;;;;5010499;28;20042;-71
2023/12/16 07:51:54;;;;;;;28.92;6.47;;;;;;;;;;5028302;28;20042;-71
2023/12/16 07:54:27;;;;;;;30.73;7.70;;;;;;;;;;5009490;28;20255;-71
2023/12/16 07:57:05;;;;;;;24.40;7.15;;;;;;;;;;5029253;28;20069;-71
2023/12/16 07:59:32;;;;;;;25.98;7.65;;;;;;;;;;5030450;28;20050;-71
2023/12/16 08:02:03;;;;;;;34.90;6.95;;;;;;;;;;5031401;28;20053;-71
2023/12/16 08:04:30;;;;;;;24.65;6.95;;;;;;;;;;5031089;28;20049;-71
2023/12/16 08:06:56;;;;;;;27.67;7.88;;;;;;;;;;5012687;28;20183;-71
2023/12/16 08:09:24;;;;;;;23.92;6.78;;;;;;;;;;5028274;28;20041;-71
2023/12/16 08:11:50;;;;;;;31.75;6.80;;;;;;;;;;5029170;28;20142;-71
2023/12/16 08:14:17;;;;;;;26.50;7.07;;;;;;;;;;5012776;28;20041;-71
2023/12/16 08:16:44;;;;;;;26.08;7.28;;;;;;;;;;5029102;28;20034;-71
2023/12/16 08:19:10;;;;;;;26.88;7.03;;;;;;;;;;5028718;28;20059;-71
2023/12/16 08:21:36;;;;;;;22.75;7.10;;;;;;;;;;5012034;28;20113;-71
2023/12/16 08:24:03;;;;;;;25.42;7.30;;;;;;;;;;5028743;28;20046;-71
2023/12/16 08:26:39;;;;;;;30.42;6.97;;;;;;;;;;5013115;28;20057;-71
2023/12/16 08:29:05;;;;;;;27.33;7.85;;;;;;;;;;5028662;28;20089;-71
2023/12/16 08:31:31;;;;;;;31.38;7.63;;;;;;;;;;5027185;28;20054;-71
2023/12/16 08:33:57;;;;;;;27.95;8.02;;;;;;;;;;5028228;28;20271;-71
2023/12/16 08:36:28;;;;;;;27.95;7.40;;;;;;;;;;5028645;28;20046;-71
2023/12/16 08:38:55;;;;;;;24.52;7.10;;;;;;;;;;5029595;28;20048;-71
2023/12/16 08:41:21;;;;;;;22.45;7.10;;;;;;;;;;5029685;28;20046;-71
2023/12/16 08:43:47;;;;;;;29.65;8.38;;;;;;;;;;5032479;28;20049;-71
2023/12/16 08:46:13;;;;;;;28.33;7.15;;;;;;;;;;5034995;28;20102;-71
2023/12/16 08:48:40;;;;;;;27.33;7.53;;;;;;;;;;5033609;28;20053;-71
2023/12/16 08:51:06;;;;;;;29.15;7.90;;;;;;;;;;5032698;28;20103;-71
2023/12/16 08:53:33;;;;;;;29.90;7.28;;;;;;;;;;5033193;28;20034;-71
2023/12/16 08:55:59;;;;;;;30.88;7.82;;;;;;;;;;5031072;28;20120;-71
2023/12/16 08:58:29;;;;;;;38.17;8.02;;;;;;;;;;5031621;28;20045;-71
2023/12/16 09:00:55;;;;;;;29.10;7.30;;;;;;;;;;5031065;28;20104;-71
2023/12/16 09:03:25;;;;;;;30.23;8.30;;;;;;;;;;5030314;28;20046;-71
2023/12/16 09:05:54;;;;;;;25.10;7.85;;;;;;;;;;5031433;28;20049;-71
2023/12/16 09:08:24;;;;;;;34.13;7.70;;;;;;;;;;5032121;28;20054;-71
2023/12/16 09:10:51;;;;;;;36.30;7.85;;;;;;;;;;5028922;28;20050;-71
2023/12/16 09:13:19;;;;;;;30.17;7.47;;;;;;;;;;5030248;28;20037;-71
2023/12/16 09:15:45;;;;;;;33.72;7.60;;;;;;;;;;5013838;28;20049;-71
2023/12/16 09:18:12;;;;;;;35.38;7.78;;;;;;;;;;5030373;28;20042;-71
2023/12/16 09:20:38;;;;;;;30.65;7.68;;;;;;;;;;5031289;28;20064;-71
2023/12/16 09:23:04;;;;;;;35.63;7.28;;;;;;;;;;5031040;28;20061;-71
2023/12/16 09:25:34;;;;;;;35.25;8.10;;;;;;;;;;5029891;28;20037;-71
2023/12/16 09:28:01;;;;;;;39.13;8.35;;;;;;;;;;5030471;28;20046;-71
2023/12/16 09:30:27;;;;;;;38.22;8.40;;;;;;;;;;5029502;28;20056;-71
2023/12/16 09:32:53;;;;;;;33.58;8.65;;;;;;;;;;5030748;28;20042;-71
2023/12/16 09:35:21;;;;;;;36.90;8.43;;;;;;;;;;5029491;28;20042;-71
2023/12/16 09:37:49;;;;;;;28.17;7.85;;;;;;;;;;5029925;28;20046;-71
2023/12/16 09:40:19;;;;;;;30.80;8.27;;;;;;;;;;5013618;28;20046;-71
2023/12/16 09:42:51;;;;;;;37.53;8.48;;;;;;;;;;5031248;28;20103;-71
2023/12/16 09:45:17;;;;;;;34.13;8.35;;;;;;;;;;5014479;28;20042;-71
2023/12/16 09:47:44;;;;;;;42.15;8.27;;;;;;;;;;5032451;28;20037;-71
2023/12/16 09:50:11;;;;;;;36.03;7.43;;;;;;;;;;5013438;28;20380;-71
2023/12/16 09:52:41;;;;;;;39.92;9.23;;;;;;;;;;5030981;28;20038;-71
2023/12/16 09:55:07;;;;;;;30.15;8.30;;;;;;;;;;5013885;28;20045;-71
2023/12/16 09:57:35;;;;;;;29.02;8.45;;;;;;;;;;5014041;28;20038;-71
2023/12/16 10:00:02;;;;;;;44.28;8.50;;;;;;;;;;5029117;28;20038;-71
2023/12/16 10:02:30;;;;;;;37.78;8.45;;;;;;;;;;5032011;28;20515;-71
2023/12/16 10:05:01;;;;;;;41.70;9.43;;;;;;;;;;5013491;28;20111;-71
2023/12/16 10:07:29;;;;;;;39.72;9.77;;;;;;;;;;5029596;28;20070;-71
2023/12/16 10:09:55;;;;;;;36.28;9.13;;;;;;;;;;5028994;28;20041;-71
2023/12/16 10:12:32;;;;;;;40.58;9.50;;;;;;;;;;5014324;28;20096;-71
2023/12/16 10:14:58;;;;;;;38.67;10.00;;;;;;;;;;5012324;28;20045;-71
2023/12/16 10:17:25;;;;;;;34.20;10.13;;;;;;;;;;5027951;28;20069;-71
2023/12/16 10:19:51;;;;;;;33.88;10.30;;;;;;;;;;4997240;28;20121;-71
2023/12/16 10:22:21;;;;;;;50.13;11.45;;;;;;;;;;5008971;28;20053;-71
2023/12/16 10:24:51;;;;;;;43.65;11.40;;;;;;;;;;5007864;28;20042;-71
2023/12/16 10:27:18;;;;;;;44.53;12.43;;;;;;;;;;4992909;28;20050;-71
2023/12/16 10:29:44;;;;;;;43.03;12.80;;;;;;;;;;5008931;28;20062;-71
2023/12/16 10:32:11;;;;;;;46.42;12.82;;;;;;;;;;5009089;28;20109;-71
2023/12/16 10:34:38;;;;;;;55.70;13.18;;;;;;;;;;5008837;28;20050;-71
2023/12/16 10:37:10;;;;;;;47.05;13.18;;;;;;;;;;5009441;28;20038;-71
2023/12/16 10:39:42;;;;;;;;;;;;;;;;;;5009143;28;20117;-71
2023/12/16 10:42:13;;;;;;;46.65;12.45;;;;;;;;;;5007670;28;19928;-71
2023/12/16 10:44:40;;;;;;;47.40;13.88;;;;;;;;;;5009995;28;20401;-71
2023/12/16 10:47:07;;;;;;;36.45;13.13;;;;;;;;;;5008685;28;20065;-71
2023/12/16 10:49:38;;;;;;;49.53;14.27;;;;;;;;;;5010882;28;20049;-71
2023/12/16 10:52:10;;;;;;;54.80;16.63;;;;;;;;;;5009553;28;20402;-71
2023/12/16 10:54:48;;;;;;;41.45;15.10;;;;;;;;;;5008848;28;20069;-71
2023/12/16 10:57:14;;;;;;;42.42;14.63;;;;;;;;;;5008399;28;20129;-71
2023/12/16 10:59:48;;;;;;;40.92;14.70;;;;;;;;;;5009866;28;20045;-71
2023/12/16 11:02:36;;;;;;;52.33;16.50;;;;;;;;;;4992770;28;20075;-71
2023/12/16 11:05:15;;;;;;;47.05;15.35;;;;;;;;;;5008027;28;20050;-71
2023/12/16 11:07:43;;;;;;;43.25;16.33;;;;;;;;;;5009967;28;20050;-71
2023/12/16 11:10:10;;;;;;;42.13;16.20;;;;;;;;;;4992721;28;20050;-71
2023/12/16 11:12:40;;;;;;;49.83;16.15;;;;;;;;;;5007864;28;20046;-71
2023/12/16 11:15:07;;;;;;;41.00;15.80;;;;;;;;;;5009555;28;20069;-71
2023/12/16 11:17:42;;;;;;;42.55;17.05;;;;;;;;;;4991930;28;20050;-71
2023/12/16 11:20:28;;;;;;;47.97;16.60;;;;;;;;;;5009287;28;20038;-71
2023/12/16 11:22:57;;;;;;;50.03;15.25;;;;;;;;;;4991487;28;20042;-71
2023/12/16 11:25:23;;;;;;;49.15;17.38;;;;;;;;;;5011986;28;20117;-71
2023/12/16 11:27:49;;;;;;;46.08;17.48;;;;;;;;;;5028245;28;20301;-71
2023/12/16 11:30:16;;;;;;;50.83;18.77;;;;;;;;;;5010939;28;20053;-71
2023/12/16 11:32:45;;;;;;;43.97;17.85;;;;;;;;;;5026136;28;20042;-71
2023/12/16 11:35:12;;;;;;;48.33;17.65;;;;;;;;;;5026452;28;20049;-71
2023/12/16 11:37:40;;;;;;;52.55;19.15;;;;;;;;;;5010780;28;20069;-71
2023/12/16 11:40:10;;;;;;;49.13;18.65;;;;;;;;;;5026694;28;20038;-71
2023/12/16 11:42:52;;;;;;;60.50;19.70;;;;;;;;;;5009564;28;20042;-71
2023/12/16 11:45:38;;;;;;;50.97;17.88;;;;;;;;;;5026135;28;20033;-72
2023/12/16 11:48:14;;;;;;;53.03;19.15;;;;;;;;;;5026499;28;20106;-72
2023/12/16 11:50:41;;;;;;;49.85;18.52;;;;;;;;;;5025696;28;20030;-72
2023/12/16 11:53:11;;;;;;;43.00;17.98;;;;;;;;;;5026632;28;20037;-72
2023/12/16 11:55:40;;;;;;;50.15;18.25;;;;;;;;;;5025389;28;20045;-72
2023/12/16 11:58:07;;;;;;;42.03;17.20;;;;;;;;;;5025660;28;20041;-72
2023/12/16 12:00:34;;;;;;;44.15;17.40;;;;;;;;;;5025632;28;20084;-72
2023/12/16 12:03:02;;;;;;;45.75;17.73;;;;;;;;;;5025204;28;20058;-72
2023/12/16 12:05:36;;;;;;;40.35;17.33;;;;;;;;;;5026765;28;20040;-72
2023/12/16 12:08:02;;;;;;;45.75;17.65;;;;;;;;;;5026682;28;20544;-72
2023/12/16 12:10:28;;;;;;;47.25;18.75;;;;;;;;;;5024721;28;20030;-72
2023/12/16 12:12:54;;;;;;;36.05;18.33;;;;;;;;;;5008653;28;20073;-72
2023/12/16 12:15:24;;;;;;;35.42;16.73;;;;;;;;;;5025415;28;20052;-72
2023/12/16 12:17:53;;;;;;;33.97;17.48;;;;;;;;;;5007634;28;20038;-72
2023/12/16 12:20:19;;;;;;;45.30;18.73;;;;;;;;;;5005532;28;20038;-72
2023/12/16 12:22:46;;;;;;;49.30;22.75;;;;;;;;;;4988848;28;20046;-72
2023/12/16 12:25:19;;;;;;;32.90;17.60;;;;;;;;;;5007153;28;20056;-72
2023/12/16 12:27:48;;;;;;;;;;;;;;;;;;5025859;28;20524;-72
2023/12/16 12:30:18;;;;;;;38.78;18.60;;;;;;;;;;5025739;28;19976;-72
2023/12/16 12:32:44;;;;;;;45.88;17.80;;;;;;;;;;5025012;28;20081;-72
2023/12/16 12:35:12;;;;;;;37.53;17.55;;;;;;;;;;5025048;28;20388;-72
2023/12/16 12:37:40;;;;;;;42.95;18.30;;;;;;;;;;5008479;28;20038;-72
2023/12/16 12:40:28;;;;;;;39.20;18.50;;;;;;;;;;5024089;28;20065;-72
2023/12/16 12:42:56;;;;;;;40.75;18.52;;;;;;;;;;5007975;28;20106;-72
2023/12/16 12:45:28;;;;;;;39.33;18.58;;;;;;;;;;5008026;28;20042;-72
2023/12/16 12:48:02;;;;;;;;;;;;;;;;;;5025009;28;20042;-72
2023/12/16 12:50:28;;;;;;;36.67;17.98;;;;;;;;;;5024664;28;20315;-72
2023/12/16 12:52:55;;;;;;;43.25;18.52;;;;;;;;;;5007459;28;20048;-72
2023/12/16 12:55:23;;;;;;;32.65;16.02;;;;;;;;;;5024992;28;20043;-72
2023/12/16 12:57:50;;;;;;;38.83;17.55;;;;;;;;;;5024858;28;20049;-72
2023/12/16 13:00:17;;;;;;;34.55;16.40;;;;;;;;;;5024349;28;20046;-72
2023/12/16 13:02:45;;;;;;;39.00;18.83;;;;;;;;;;5024301;28;20106;-72
2023/12/16 13:05:13;;;;;;;39.15;17.30;;;;;;;;;;5024536;28;20105;-72
2023/12/16 13:07:40;;;;;;;37.78;17.83;;;;;;;;;;5024386;28;20049;-72
2023/12/16 13:10:07;;;;;;;43.60;18.77;;;;;;;;;;5025413;28;20073;-72
2023/12/16 13:12:33;;;;;;;38.03;18.48;;;;;;;;;;5025063;28;20098;-72
2023/12/16 13:15:01;;;;;;;43.83;18.73;;;;;;;;;;5024506;28;20049;-72
2023/12/16 13:17:32;;;;;;;43.50;19.05;;;;;;;;;;5024575;28;20064;-72
2023/12/16 13:20:04;;;;;;;42.35;18.33;;;;;;;;;;5007700;28;20049;-72
2023/12/16 13:22:34;;;;;;;41.47;19.27;;;;;;;;;;5004264;28;20042;-72
2023/12/16 13:25:00;;;;;;;43.90;18.55;;;;;;;;;;5006170;28;20050;-72
2023/12/16 13:27:26;;;;;;;47.38;19.17;;;;;;;;;;5005166;28;20038;-72
2023/12/16 13:29:53;;;;;;;47.45;20.17;;;;;;;;;;5008063;28;20055;-72
2023/12/16 13:32:20;;;;;;;50.05;21.98;;;;;;;;;;5008232;28;20046;-72
2023/12/16 13:34:52;;;;;;;50.63;21.90;;;;;;;;;;5008867;28;20054;-72
2023/12/16 13:37:18;;;;;;;;;;;;;;;;;;4992916;28;20101;-72
2023/12/16 13:39:44;;;;;;;55.03;22.52;;;;;;;;;;4991283;28;19921;-72
2023/12/16 13:42:11;;;;;;;59.08;25.80;;;;;;;;;;5008083;28;20199;-72
2023/12/16 13:44:38;;;;;;;53.50;24.75;;;;;;;;;;5007935;28;20118;-72
2023/12/16 13:47:05;;;;;;;51.17;21.13;;;;;;;;;;5008010;28;20089;-72
2023/12/16 13:49:33;;;;;;;43.03;19.88;;;;;;;;;;5008157;28;20048;-72
2023/12/16 13:52:06;;;;;;;47.17;17.85;;;;;;;;;;5006964;28;20051;-70
2023/12/16 13:54:32;;;;;;;35.65;14.60;;;;;;;;;;5008818;28;20046;-70
2023/12/16 13:56:59;;;;;;;37.10;13.20;;;;;;;;;;5008755;28;20504;-70
2023/12/16 13:59:32;;;;;;;28.95;13.68;;;;;;;;;;5008030;28;20045;-70
2023/12/16 14:01:59;;;;;;;30.83;13.65;;;;;;;;;;4992358;28;20094;-70
2023/12/16 14:04:26;;;;;;;33.63;13.88;;;;;;;;;;4992627;28;20046;-70
2023/12/16 14:06:52;;;;;;;35.58;13.80;;;;;;;;;;5007537;28;20173;-71
2023/12/16 14:09:18;;;;;;;26.55;12.75;;;;;;;;;;4991040;28;20085;-71
2023/12/16 14:11:47;;;;;;;26.70;12.73;;;;;;;;;;4990764;28;20053;-71
2023/12/16 14:14:13;;;;;;;30.77;12.35;;;;;;;;;;5007572;28;20046;-72
2023/12/16 14:16:41;;;;;;;29.67;11.88;;;;;;;;;;5006484;28;20043;-72
2023/12/16 14:19:07;;;;;;;31.92;12.38;;;;;;;;;;5017992;28;20038;-72
2023/12/16 14:21:33;;;;;;;26.45;11.77;;;;;;;;;;5011549;28;20648;-72
2023/12/16 14:24:02;;;;;;;31.83;13.25;;;;;;;;;;5026309;28;20045;-72
2023/12/16 14:26:30;;;;;;;30.48;13.00;;;;;;;;;;5028667;28;20574;-72
2023/12/16 14:28:56;;;;;;;28.20;12.77;;;;;;;;;;5028626;28;20038;-72
2023/12/16 14:31:25;;;;;;;29.33;12.02;;;;;;;;;;5029623;28;20046;-72
2023/12/16 14:33:54;;;;;;;34.28;12.90;;;;;;;;;;5026426;28;20077;-72
2023/12/16 14:36:20;;;;;;;28.30;12.50;;;;;;;;;;5027640;28;20056;-72